• Join FlightAware (Why Join?)
  • Login
  • US Flag 
01:30PM EDT


 

Airport Tracker/Info


-or-


 

Live Flight TrackerFlight Track Log ✈ UAL4530 ✈ 19-Apr-2013 ✈ KEWR - KMCI

Flight Track Log - Related Links

Times and Time Zones

All times are in EDT time to prevent confusion due to time zone crossing. See the UAL4530 flight status page for this flight to view local times or setup timezone preferences in your user account.

Time Position Orientation Groundspeed Altitude Reporting Facility
EDT Latitude Longitude Course Direction KTS MPH feet Rate Location/Type
01:36PM 40.6500 -74.1833 276° West 162 186 1,400  Level New York TRACON
01:37PM 40.6500 -74.2333 270° West 223 257 3,200 2,220 Climbing New York TRACON
01:38PM 40.7000 -74.3167 308° West 257 296 6,100 2,400 Climbing New York TRACON
01:39PM 40.7456 -74.6510 277° West  Level FlightAware Approximate
01:39PM 40.7333 -74.3833 303° West 263 303 8,300  Level New York TRACON
01:40PM 40.7560 -74.7769 276° West  Level FlightAware Approximate
01:40PM 40.7500 -74.4833 282° West 252 290 10,600  Level New York TRACON
01:41PM 40.7656 -74.9030 276° West  Level FlightAware Approximate
01:42PM 40.7650 -74.6369 277° West 279 321 12,900  Level New York Center
01:43PM 40.7753 -74.7636 276° West 304 350 14,200 1,140 Climbing New York Center
01:43PM 40.7842 -74.8736 276° West 329 379 15,200 1,140 Climbing New York Center
01:44PM 40.7958 -75.0142 276° West 352 405 16,500 1,320 Climbing New York Center
01:45PM 40.7994 -75.1461 272° West 359 413 17,900 1,320 Climbing New York Center
01:47PM 40.7847 -75.2547 260° West 347 399 19,200 1,380 Climbing New York Center
01:47PM 40.7656 -75.3769 258° West 347 399 20,700 1,620 Climbing New York Center
01:48PM 40.7253 -75.4972 246° West 340 391 22,400 1,560 Climbing New York Center
01:49PM 40.6856 -75.6042 244° Southwest 335 386 23,900 1,440 Climbing New York Center
01:50PM 40.6458 -75.7081 243° Southwest 329 379 25,400 1,320 Climbing New York Center
01:51PM 40.6061 -75.8117 243° Southwest 324 373 26,600 1,020 Climbing New York Center
01:53PM 40.5753 -75.8969 245° Southwest 324 373 27,500 1,020 Climbing New York Center
01:54PM 40.5242 -76.0186 241° Southwest 329 379 28,700 1,140 Climbing New York Center
01:55PM 40.4817 -76.1272 243° Southwest 335 386 29,800 1,080 Climbing New York Center
01:55PM 40.4411 -76.2386 244° Southwest 341 392 30,900 1,080 Climbing New York Center
01:56PM 40.3964 -76.3469 242° Southwest 341 392 32,000 1,080 Climbing New York Center
01:58PM 40.3558 -76.4581 244° Southwest 341 392 33,100 1,080 Climbing New York Center
01:59PM 40.3150 -76.5664 244° Southwest 336 387 34,200 1,080 Climbing New York Center
01:59PM 40.2706 -76.6689 240° Southwest 336 387 35,300 900 Climbing New York Center
02:00PM 40.2297 -76.7742 243° Southwest 336 387 36,000 300 Climbing New York Center
02:02PM 40.1889 -76.8792 243° Southwest 336 387 36,000  Level New York Center
02:03PM 40.1800 -77.0089 265° West 336 387 36,000  Level New York Center
02:03PM 40.1747 -77.1444 267° West 359 413 36,000  Level New York Center
02:04PM 40.1725 -77.2992 269° West 375 432 36,000  Level New York Center
02:05PM 40.1692 -77.4372 268° West 382 440 36,000  Level New York Center
02:08PM 40.1631 -77.7467 269° West 388 447 36,000  Level Cleveland Center
02:09PM 40.1583 -77.8856 267° West 388 447 36,000  Level Cleveland Center
02:10PM 40.1469 -78.0272 264° West 388 447 36,000  Level Cleveland Center
02:11PM 40.1436 -78.1686 268° West 388 447 36,000  Level Cleveland Center
02:12PM 40.1383 -78.3072 267° West 388 447 36,000  Level Cleveland Center
02:13PM 40.1325 -78.4433 267° West 388 447 36,000  Level Cleveland Center
02:14PM 40.1289 -78.5819 268° West 388 447 36,000  Level Cleveland Center
02:15PM 40.1208 -78.7206 266° West 383 441 36,000  Level Cleveland Center
02:16PM 40.1167 -78.8564 268° West 383 441 36,000  Level Cleveland Center
02:17PM 40.1103 -78.9897 266° West 383 441 36,000  Level Cleveland Center
02:18PM 40.1058 -79.1228 268° West 383 441 36,000  Level Cleveland Center
02:19PM 40.1094 -79.2611 272° West 383 441 36,000  Level Cleveland Center
02:20PM 40.1131 -79.3942 272° West 383 441 36,000  Level Cleveland Center
02:21PM 40.1144 -79.5297 271° West 383 441 36,000  Level Cleveland Center
02:22PM 40.1178 -79.6656 272° West 383 441 36,000  Level Cleveland Center
02:23PM 40.1208 -79.8039 272° West 383 441 36,000  Level Cleveland Center
02:24PM 40.1217 -79.9369 271° West 383 441 36,000  Level Cleveland Center
02:25PM 40.1222 -80.0700 270° West 383 441 36,000  Level Cleveland Center
02:26PM 40.1250 -80.2083 272° West 383 441 36,000  Level Cleveland Center
02:27PM 40.1253 -80.3442 270° West 383 441 36,000  Level Cleveland Center
02:28PM 40.1275 -80.4608 271° West 377 434 36,000  Level Cleveland Center
02:29PM 40.1294 -80.6831 271° West 361 415 36,000  Level Indianapolis Center
02:30PM 40.1308 -80.8133 271° West 356 410 36,000  Level Indianapolis Center
02:31PM 40.1311 -80.9422 270° West 352 405 36,000  Level Indianapolis Center
02:32PM 40.1319 -81.0708 271° West 351 404 36,000  Level Indianapolis Center
02:33PM 40.1317 -81.1997 270° West 350 403 36,000  Level Indianapolis Center
02:34PM 40.1319 -81.3525 270° West 357 411 36,000  Level Indianapolis Center
02:35PM 40.1308 -81.4819 269° West 354 407 36,000  Level Indianapolis Center
02:37PM 40.1089 -81.6025 257° West 339 390 36,000  Level Indianapolis Center
02:38PM 40.0908 -81.7228 259° West 336 387 36,000  Level Indianapolis Center
02:39PM 40.0728 -81.8517 260° West 335 386 36,000  Level Indianapolis Center
02:40PM 40.0597 -81.9725 262° West 335 386 36,000  Level Indianapolis Center
02:41PM 40.0614 -82.1022 271° West 352 405 36,000  Level Indianapolis Center
02:42PM 40.0619 -82.2300 270° West 351 404 36,000  Level Indianapolis Center
02:43PM 40.0619 -82.3603 270° West 356 410 36,000  Level Indianapolis Center
02:44PM 40.0625 -82.4897 270° West 355 409 36,000  Level Indianapolis Center
02:45PM 40.0614 -82.6206 269° West 358 412 36,000  Level Indianapolis Center
02:46PM 40.0619 -82.7511 270° West 357 411 36,000  Level Indianapolis Center
02:47PM 40.0611 -82.8964 270° West 356 410 36,000  Level Indianapolis Center
02:48PM 40.0614 -83.0261 270° West 356 410 36,000  Level Indianapolis Center
02:49PM 40.0603 -83.1575 269° West 357 411 36,000  Level Indianapolis Center
02:50PM 40.0592 -83.2939 269° West 360 414 36,000  Level Indianapolis Center
02:51PM 40.0586 -83.4228 270° West 357 411 36,000  Level Indianapolis Center
02:52PM 40.0572 -83.5536 269° West 362 417 36,000  Level Indianapolis Center
02:53PM 40.0558 -83.6850 269° West 362 417 36,000  Level Indianapolis Center
02:54PM 40.0544 -83.8386 269° West 363 418 36,000  Level Indianapolis Center
02:55PM 40.0531 -83.9722 269° West 366 421 36,000  Level Indianapolis Center
02:56PM 40.0508 -84.1025 269° West 361 415 36,000  Level Indianapolis Center
02:57PM 40.0492 -84.2333 269° West 358 412 36,000  Level Indianapolis Center
02:58PM 40.0475 -84.3642 269° West 359 413 36,000  Level Indianapolis Center
02:59PM 40.0447 -84.4958 268° West 360 414 36,000  Level Indianapolis Center
03:00PM 40.0428 -84.6272 269° West 362 417 36,000  Level Indianapolis Center
03:01PM 40.0403 -84.7586 269° West 361 415 36,000 -60 Level Indianapolis Center
03:02PM 40.0364 -84.9131 268° West 363 418 35,900  Descending Indianapolis Center
03:03PM 40.0336 -85.0458 268° West 365 420 36,000  Climbing Indianapolis Center
03:04PM 40.0311 -85.1778 269° West 362 417 36,000  Level Indianapolis Center
03:05PM 40.0269 -85.3097 268° West 362 417 36,000  Level Indianapolis Center
03:06PM 40.0261 -85.4389 270° West 356 410 36,000  Level Indianapolis Center
03:07PM 40.0214 -85.5486 267° West 357 411 36,000  Level Indianapolis Center
03:08PM 40.0178 -85.6808 268° West 361 415 36,000  Level Indianapolis Center
03:09PM 40.0144 -85.8139 268° West 364 419 36,000  Level Indianapolis Center
03:10PM 40.0100 -85.9469 268° West 364 419 36,000  Level Indianapolis Center
03:11PM 40.0064 -86.0803 268° West 366 421 36,000  Level Indianapolis Center
03:12PM 40.0050 -86.1286 268° West 366 421 36,000  Level Chicago Center
03:13PM 40.0006 -86.2625 268° West 368 423 36,000  Level Chicago Center
03:14PM 39.9961 -86.3956 268° West 367 422 36,000  Level Chicago Center
03:14PM 39.9919 -86.5044 267° West 366 421 36,000  Level Indianapolis Center
03:15PM 39.9878 -86.6369 268° West 365 420 36,000  Level Indianapolis Center
03:16PM 39.9822 -86.7686 267° West 365 420 36,000  Level Indianapolis Center
03:18PM 39.9786 -86.9017 268° West 366 421 36,000  Level Indianapolis Center
03:19PM 39.9728 -87.0342 267° West 367 422 36,000  Level Indianapolis Center
03:20PM 39.9678 -87.1681 267° West 368 423 36,000  Level Indianapolis Center
03:21PM 39.9619 -87.3044 267° West 374 430 36,000  Level Indianapolis Center
03:22PM 39.9556 -87.4683 267° West 376 433 36,000  Level Indianapolis Center
03:23PM 39.9486 -87.6050 266° West 377 434 36,000  Level Indianapolis Center
03:24PM 39.9436 -87.7425 267° West 379 436 36,000  Level Indianapolis Center
03:25PM 39.9367 -87.8808 266° West 381 438 36,000  Level Indianapolis Center
03:25PM 39.9353 -87.9247 268° West 380 437 36,000  Level Chicago Center
03:26PM 39.9286 -88.0633 266° West 383 441 36,000  Level Chicago Center
03:27PM 39.9228 -88.2025 267° West 385 443 36,000  Level Chicago Center
03:28PM 39.9139 -88.3672 266° West 379 436 36,000  Level Chicago Center
03:29PM 39.9092 -88.4514 266° West 382 440 36,000  Level Kansas City Center
03:30PM 39.9019 -88.5917 266° West 386 444 36,000  Level Kansas City Center
03:31PM 39.8947 -88.7328 266° West 388 447 36,000  Level Kansas City Center
03:32PM 39.8864 -88.8733 266° West 390 449 36,000  Level Kansas City Center
03:33PM 39.8786 -89.0147 266° West 390 449 36,000  Level Kansas City Center
03:34PM 39.8683 -89.1869 266° West 395 455 36,000  Level Kansas City Center
03:35PM 39.8603 -89.3292 266° West 395 455 36,000  Level Kansas City Center
03:36PM 39.8514 -89.4728 265° West 396 456 36,000  Level Kansas City Center
03:37PM 39.8431 -89.6161 266° West 397 457 36,000  Level Kansas City Center
03:38PM 39.8389 -89.7553 268° West 388 447 36,000  Level Kansas City Center
03:39PM 39.8417 -89.8914 272° West 380 437 36,000  Level Kansas City Center
03:40PM 39.8422 -90.0286 270° West 378 435 36,000 -540 Level Kansas City Center
03:41PM 39.8444 -90.1961 271° West 383 441 35,000 -480 Descending Kansas City Center
03:42PM 39.8456 -90.3361 271° West 385 443 35,000 -540 Level Kansas City Center
03:43PM 39.8453 -90.4772 270° West 386 444 34,000 -480 Descending Kansas City Center
03:44PM 39.8467 -90.6217 271° West 391 450 34,000  Level Kansas City Center
03:45PM 39.8469 -90.7647 270° West 394 453 34,000  Level Kansas City Center
03:46PM 39.8472 -90.9069 270° West 393 452 34,000  Level Kansas City Center
03:47PM 39.8475 -91.0586 270° West 383 441 34,000  Level Kansas City Center
03:48PM 39.8481 -91.1942 270° West 380 437 34,000  Level Kansas City Center
03:50PM 39.8458 -91.3308 269° West 380 437 34,000  Level Kansas City Center
03:51PM 39.8328 -91.4661 263° West 377 434 34,000  Level Kansas City Center
03:52PM 39.8208 -91.6208 264° West 366 421 34,000  Level Kansas City Center
03:53PM 39.8111 -91.7464 264° West 356 410 34,000  Level Kansas City Center
03:54PM 39.8025 -91.8708 265° West 351 404 34,000  Level Kansas City Center
03:55PM 39.7939 -91.9964 265° West 351 404 34,000  Level Kansas City Center
03:56PM 39.7836 -92.1242 264° West 354 407 34,000  Level Kansas City Center
03:57PM 39.7731 -92.2531 264° West 358 412 34,000 -1,020 Level Kansas City Center
03:58PM 39.7611 -92.4072 264° West 359 413 32,000 -2,040 Descending Kansas City Center
03:59PM 39.7500 -92.5392 264° West 363 418 29,900 -2,040 Descending Kansas City Center
04:00PM 39.7389 -92.6661 264° West 359 413 27,800 -1,980 Descending Kansas City Center
04:01PM 39.7289 -92.7858 264° West 344 396 25,800 -1,920 Descending Kansas City Center
04:02PM 39.7189 -92.8983 263° West 325 374 23,900 -2,220 Descending Kansas City Center
04:03PM 39.7083 -93.0272 264° West 306 352 21,300 -2,400 Descending Kansas City Center
04:04PM 39.7006 -93.1322 265° West 299 344 19,100 -2,040 Descending Kansas City Center
04:06PM 39.6803 -93.3367 263° West 286 329 15,000 -1,920 Descending Kansas City Center
04:07PM 39.6728 -93.4336 264° West 277 319 13,200 -1,500 Descending Kansas City Center
04:08PM 39.6647 -93.5250 263° West 268 308 12,000 -600 Descending Kansas City Center
04:09PM 39.6531 -93.6342 262° West 259 298 12,000 -60 Level Kansas City Center
04:10PM 39.6444 -93.7247 263° West 254 292 11,900  Descending Kansas City Center
04:11PM 39.6364 -93.8111 263° West 251 289 12,000 -240 Climbing Kansas City Center
04:12PM 39.6161 -93.9086 255° West 255 293 11,500 -960 Descending Kansas City Center
04:13PM 39.5756 -93.9833 235° Southwest 261 300 10,000 -1,620 Descending Kansas City Center
04:14PM 39.5317 -94.0692 236° Southwest 256 295 8,200 -1,500 Descending Kansas City Center
04:15PM 39.4619 -94.0958 196° South 270 311 7,000 -660 Descending Kansas City Center
04:16PM 39.3822 -94.1269 197° South 268 308 6,900 -60 Descending Kansas City Center
04:17PM 39.3192 -94.1714 209° Southwest 269 310 6,900  Level Kansas City Center
04:18PM 39.2581 -94.2281 216° Southwest 235 270 6,900  Level Kansas City Center
04:20PM 39.2511 -94.2828 261° West 167 192 7,000 -240 Climbing Kansas City Center
04:21PM 39.2586 -94.3511 278° West 172 198 6,500 -660 Descending Kansas City Center
04:22PM 39.2631 -94.4031 276° West 155 178 5,700 -960 Descending Kansas City Center
04:23PM 39.2689 -94.4664 277° West 158 182 4,600 -960 Descending Kansas City Center
04:24PM 39.2733 -94.5236 276° West 167 192 3,800 -840 Descending Kansas City Center